sensor_id;sensor_type;location;lat;lon;timestamp;temperature;humidity
43862;DHT22;29510;52.140;5.034;2023-05-15T00:07:05;11.90;23.60
43862;DHT22;29510;52.140;5.034;2023-05-15T00:17:07;11.70;21.10
43862;DHT22;29510;52.140;5.034;2023-05-15T00:27:09;11.70;26.80
43862;DHT22;29510;52.140;5.034;2023-05-15T00:37:10;11.50;22.40
43862;DHT22;29510;52.140;5.034;2023-05-15T00:47:12;11.40;25.30
43862;DHT22;29510;52.140;5.034;2023-05-15T00:57:14;11.30;26.10
43862;DHT22;29510;52.140;5.034;2023-05-15T01:07:15;11.20;22.60
43862;DHT22;29510;52.140;5.034;2023-05-15T01:17:16;11.10;24.50
43862;DHT22;29510;52.140;5.034;2023-05-15T01:37:44;10.90;33.70
43862;DHT22;29510;52.140;5.034;2023-05-15T01:47:52;10.80;47.30
43862;DHT22;29510;52.140;5.034;2023-05-15T01:57:54;10.80;55.00
43862;DHT22;29510;52.140;5.034;2023-05-15T02:07:56;10.60;54.70
43862;DHT22;29510;52.140;5.034;2023-05-15T02:17:57;10.60;57.70
43862;DHT22;29510;52.140;5.034;2023-05-15T02:28:00;10.60;60.70
43862;DHT22;29510;52.140;5.034;2023-05-15T02:38:04;10.50;63.80
43862;DHT22;29510;52.140;5.034;2023-05-15T02:48:07;10.40;60.60
43862;DHT22;29510;52.140;5.034;2023-05-15T02:58:08;10.30;66.90
43862;DHT22;29510;52.140;5.034;2023-05-15T03:08:10;10.40;88.10
43862;DHT22;29510;52.140;5.034;2023-05-15T03:18:12;10.40;95.20
43862;DHT22;29510;52.140;5.034;2023-05-15T03:28:13;10.30;97.70
43862;DHT22;29510;52.140;5.034;2023-05-15T03:38:14;10.30;97.10
43862;DHT22;29510;52.140;5.034;2023-05-15T03:48:15;10.30;99.90
43862;DHT22;29510;52.140;5.034;2023-05-15T03:58:16;10.30;99.90
43862;DHT22;29510;52.140;5.034;2023-05-15T04:08:17;10.40;99.90
43862;DHT22;29510;52.140;5.034;2023-05-15T04:18:18;10.40;99.90
43862;DHT22;29510;52.140;5.034;2023-05-15T04:28:19;10.40;99.90
43862;DHT22;29510;52.140;5.034;2023-05-15T04:38:21;10.40;99.90
43862;DHT22;29510;52.140;5.034;2023-05-15T04:48:22;10.40;99.90
43862;DHT22;29510;52.140;5.034;2023-05-15T04:58:23;10.50;99.90
43862;DHT22;29510;52.140;5.034;2023-05-15T05:08:24;10.50;99.90
43862;DHT22;29510;52.140;5.034;2023-05-15T05:18:26;10.60;99.90
43862;DHT22;29510;52.140;5.034;2023-05-15T05:28:27;10.60;99.90
43862;DHT22;29510;52.140;5.034;2023-05-15T05:38:28;10.80;94.10
43862;DHT22;29510;52.140;5.034;2023-05-15T05:48:29;10.90;69.00
43862;DHT22;29510;52.140;5.034;2023-05-15T05:58:30;11.00;68.10
43862;DHT22;29510;52.140;5.034;2023-05-15T06:08:31;11.30;53.50
43862;DHT22;29510;52.140;5.034;2023-05-15T06:18:32;11.30;47.30
43862;DHT22;29510;52.140;5.034;2023-05-15T06:28:33;11.40;41.50
43862;DHT22;29510;52.140;5.034;2023-05-15T06:38:34;11.50;36.60
43862;DHT22;29510;52.140;5.034;2023-05-15T06:48:36;11.70;25.50
43862;DHT22;29510;52.140;5.034;2023-05-15T06:58:37;11.80;20.00
43862;DHT22;29510;52.140;5.034;2023-05-15T07:08:38;12.00;15.10
43862;DHT22;29510;52.140;5.034;2023-05-15T07:18:39;12.10;18.10
43862;DHT22;29510;52.140;5.034;2023-05-15T07:28:40;12.30;13.80
43862;DHT22;29510;52.140;5.034;2023-05-15T07:38:41;12.40;10.30
43862;DHT22;29510;52.140;5.034;2023-05-15T07:48:42;12.50;8.10
43862;DHT22;29510;52.140;5.034;2023-05-15T07:58:43;12.70;6.50
43862;DHT22;29510;52.140;5.034;2023-05-15T08:08:44;13.00;3.40
43862;DHT22;29510;52.140;5.034;2023-05-15T08:18:45;13.10;1.90
43862;DHT22;29510;52.140;5.034;2023-05-15T08:28:47;13.10;1.00
43862;DHT22;29510;52.140;5.034;2023-05-15T08:38:48;13.00;1.00
43862;DHT22;29510;52.140;5.034;2023-05-15T08:48:49;13.00;3.30
43862;DHT22;29510;52.140;5.034;2023-05-15T08:58:52;13.00;5.80
43862;DHT22;29510;52.140;5.034;2023-05-15T09:08:55;13.00;5.10
43862;DHT22;29510;52.140;5.034;2023-05-15T09:18:58;13.10;7.70
43862;DHT22;29510;52.140;5.034;2023-05-15T09:29:02;13.00;6.10
43862;DHT22;29510;52.140;5.034;2023-05-15T09:39:03;13.00;8.60
43862;DHT22;29510;52.140;5.034;2023-05-15T09:49:05;13.00;11.30
43862;DHT22;29510;52.140;5.034;2023-05-15T09:59:16;13.00;10.60
43862;DHT22;29510;52.140;5.034;2023-05-15T10:09:17;13.10;13.00
43862;DHT22;29510;52.140;5.034;2023-05-15T10:19:21;13.20;14.10
43862;DHT22;29510;52.140;5.034;2023-05-15T10:29:24;13.20;14.30
43862;DHT22;29510;52.140;5.034;2023-05-15T10:39:28;13.30;14.50
43862;DHT22;29510;52.140;5.034;2023-05-15T10:49:29;13.40;16.90
43862;DHT22;29510;52.140;5.034;2023-05-15T10:59:31;13.60;15.50
43862;DHT22;29510;52.140;5.034;2023-05-15T11:09:34;13.70;8.30
43862;DHT22;29510;52.140;5.034;2023-05-15T11:40:18;14.60;1.00
43862;DHT22;29510;52.140;5.034;2023-05-15T11:50:19;14.90;1.00
43862;DHT22;29510;52.140;5.034;2023-05-15T12:00:21;15.20;1.00
43862;DHT22;29510;52.140;5.034;2023-05-15T12:10:23;15.40;1.00
43862;DHT22;29510;52.140;5.034;2023-05-15T12:20:24;15.50;1.00
43862;DHT22;29510;52.140;5.034;2023-05-15T12:30:25;15.10;1.00
43862;DHT22;29510;52.140;5.034;2023-05-15T12:40:26;15.00;1.00
43862;DHT22;29510;52.140;5.034;2023-05-15T12:50:27;14.70;1.00
43862;DHT22;29510;52.140;5.034;2023-05-15T13:00:30;14.50;1.00
43862;DHT22;29510;52.140;5.034;2023-05-15T13:10:36;14.60;1.00
43862;DHT22;29510;52.140;5.034;2023-05-15T13:20:48;14.40;1.00
43862;DHT22;29510;52.140;5.034;2023-05-15T13:30:51;14.20;1.00
43862;DHT22;29510;52.140;5.034;2023-05-15T13:40:52;13.90;1.00
43862;DHT22;29510;52.140;5.034;2023-05-15T13:50:53;13.90;1.00
43862;DHT22;29510;52.140;5.034;2023-05-15T14:00:54;13.90;1.00
43862;DHT22;29510;52.140;5.034;2023-05-15T14:10:55;13.80;1.00
43862;DHT22;29510;52.140;5.034;2023-05-15T14:20:56;13.60;1.00
43862;DHT22;29510;52.140;5.034;2023-05-15T14:30:58;13.70;1.00
43862;DHT22;29510;52.140;5.034;2023-05-15T14:40:59;13.80;1.00
43862;DHT22;29510;52.140;5.034;2023-05-15T14:51:00;13.70;1.00
43862;DHT22;29510;52.140;5.034;2023-05-15T15:01:02;13.60;1.00
43862;DHT22;29510;52.140;5.034;2023-05-15T15:11:03;13.40;1.00
43862;DHT22;29510;52.140;5.034;2023-05-15T15:21:05;13.30;1.00
43862;DHT22;29510;52.140;5.034;2023-05-15T15:31:08;13.20;1.00
43862;DHT22;29510;52.140;5.034;2023-05-15T15:41:09;13.20;1.00
43862;DHT22;29510;52.140;5.034;2023-05-15T15:51:10;13.20;1.00
43862;DHT22;29510;52.140;5.034;2023-05-15T16:01:11;13.20;1.00
43862;DHT22;29510;52.140;5.034;2023-05-15T16:11:12;13.30;1.00
43862;DHT22;29510;52.140;5.034;2023-05-15T16:21:15;13.30;1.00
43862;DHT22;29510;52.140;5.034;2023-05-15T16:31:16;13.20;1.00
43862;DHT22;29510;52.140;5.034;2023-05-15T16:41:17;13.30;1.00
43862;DHT22;29510;52.140;5.034;2023-05-15T16:51:19;13.30;1.00
43862;DHT22;29510;52.140;5.034;2023-05-15T17:01:20;13.20;1.00
43862;DHT22;29510;52.140;5.034;2023-05-15T17:11:21;13.10;1.00
43862;DHT22;29510;52.140;5.034;2023-05-15T17:21:22;12.90;1.00
43862;DHT22;29510;52.140;5.034;2023-05-15T17:31:23;12.70;1.00
43862;DHT22;29510;52.140;5.034;2023-05-15T17:41:24;12.40;1.00
43862;DHT22;29510;52.140;5.034;2023-05-15T17:51:25;12.20;1.50
43862;DHT22;29510;52.140;5.034;2023-05-15T18:01:27;12.10;6.20
43862;DHT22;29510;52.140;5.034;2023-05-15T18:11:28;12.00;8.20
43862;DHT22;29510;52.140;5.034;2023-05-15T18:21:29;11.80;6.40
43862;DHT22;29510;52.140;5.034;2023-05-15T18:31:30;11.80;6.50
43862;DHT22;29510;52.140;5.034;2023-05-15T18:41:32;11.70;2.80
43862;DHT22;29510;52.140;5.034;2023-05-15T18:51:33;11.40;6.70
43862;DHT22;29510;52.140;5.034;2023-05-15T19:01:35;11.40;13.50
43862;DHT22;29510;52.140;5.034;2023-05-15T19:11:36;11.30;16.30
43862;DHT22;29510;52.140;5.034;2023-05-15T19:21:38;10.90;16.60
43862;DHT22;29510;52.140;5.034;2023-05-15T19:31:40;10.70;21.70
43862;DHT22;29510;52.140;5.034;2023-05-15T19:41:41;10.60;14.60
43862;DHT22;29510;52.140;5.034;2023-05-15T19:51:42;10.50;16.40
43862;DHT22;29510;52.140;5.034;2023-05-15T20:01:43;10.50;17.70
43862;DHT22;29510;52.140;5.034;2023-05-15T20:11:44;10.40;17.50
43862;DHT22;29510;52.140;5.034;2023-05-15T20:21:45;10.30;6.80
43862;DHT22;29510;52.140;5.034;2023-05-15T20:31:46;10.20;5.00
43862;DHT22;29510;52.140;5.034;2023-05-15T20:41:47;10.20;4.70
43862;DHT22;29510;52.140;5.034;2023-05-15T20:51:48;10.10;2.20
43862;DHT22;29510;52.140;5.034;2023-05-15T21:01:50;10.10;2.10
43862;DHT22;29510;52.140;5.034;2023-05-15T21:11:51;10.00;1.00
43862;DHT22;29510;52.140;5.034;2023-05-15T21:21:52;10.10;1.00
43862;DHT22;29510;52.140;5.034;2023-05-15T21:31:53;9.90;1.00
43862;DHT22;29510;52.140;5.034;2023-05-15T21:41:56;9.90;1.00
43862;DHT22;29510;52.140;5.034;2023-05-15T21:51:58;9.80;1.00
43862;DHT22;29510;52.140;5.034;2023-05-15T22:02:00;9.70;1.00
43862;DHT22;29510;52.140;5.034;2023-05-15T22:12:02;9.60;1.00
43862;DHT22;29510;52.140;5.034;2023-05-15T22:22:03;9.60;1.00
43862;DHT22;29510;52.140;5.034;2023-05-15T22:32:05;9.60;1.00
43862;DHT22;29510;52.140;5.034;2023-05-15T22:42:06;9.50;1.00
43862;DHT22;29510;52.140;5.034;2023-05-15T22:52:07;9.50;1.00
43862;DHT22;29510;52.140;5.034;2023-05-15T23:02:08;9.40;1.00
43862;DHT22;29510;52.140;5.034;2023-05-15T23:12:09;9.40;1.00
43862;DHT22;29510;52.140;5.034;2023-05-15T23:22:10;9.30;1.00
43862;DHT22;29510;52.140;5.034;2023-05-15T23:32:12;9.30;1.00
43862;DHT22;29510;52.140;5.034;2023-05-15T23:42:13;9.20;1.00
43862;DHT22;29510;52.140;5.034;2023-05-15T23:52:14;9.20;1.00
